Forside
METAR-TAF:

METAR-TAF

Lufthavne :

Brize Norton, England

Breddekreds: 51-45N, længdekreds: 001-35W, højde: 88 m

Aktuelle vejr

Denne rapport blev lavet for 45 minutter siden, kl. 02:20 UTC
Vind 2 kt fra vest
Temperatur 8°C
Fugtighed 93%
Tryk 1034 hPa
Sigt 10 km eller mere
ingen skyer under 1500m og ingen cumulonimbus

METAR: EGVN 250220Z 26002KT CAVOK 08/07 Q1034 NOSIG RMK BLU BLU

Tid: 04:05 (03:05 UTC)

Vejrudsigter

Denne rapport blev lavet for 1 time og 18 minutter siden, kl. 01:47 UTC
Foreløbig gælder fra 25 på 03 UTC til 26 på 03 UTC
Vind 4 kt fra vestsydvest
Sigt 10 km eller mere
ingen skyer under 1500m og ingen cumulonimbus
Sandsynlighed 30%
fra 25 på 03 UTC til 25 på 07 UTC
Sigt: 4500 m
dis, Let tåge

TAF: EGVN 250147Z 2503/2603 24004KT CAVOK PROB30 2503/2507 4500 BR MIFG

Vejrobservationer og prognoser fra mere end 4000 lufthavne (METAR og TAF).

De gule og røde prikker repræsenterer de meteorologiske stationer.

Flyt musen over at se navnet på stationen.

Så klik over at se vejr observationer og prognoser.

At skifte det kort: Klik på de grønne knapper med et sort kors for at zoome ind; på den grønne knap med en bindestreg for at zoome ud; eller på de grønne pile for tilstødende kort.


METAR-TAF: